CPX405 Details

Departure: Nashville International Airport (KBNA)
Arrival: Miami International Airport (KMIA)
Route: TIPPN3 BRXTN BULZI NICKI Q81 ENDEW JUULI SSCOT5


Current Weather Information
KBNA 252353Z 34008KT 10SM SCT016 OVC027 13/08 A3006 RMK AO2 SLP179 T01280083 10206 20128 51028
KMIA 252353Z 12005KT 10SM FEW025 24/19 A3003 RMK AO2 SLP168 60042 T02390194 10272 20228 55000